Time;durP1;ratioP1;P1;durP2;ratioP2;P2;SDS_P1;SDS_P2;PMS_P1;PMS_P2;Temp;Humidity;BMP_temperature;BMP_pressure;BME280_temperature;BME280_humidity;BME280_pressure;Samples;Min_cycle;Max_cycle;Signal;HPM_P1;HPM_P2
2021/12/10 00:01:41;;;;;;;;;;;4.30;97.30;;;;;;5117852;27;19915;-78
2021/12/10 00:04:08;;;;;;;;;;;4.40;97.20;;;;;;5135545;27;20416;-79
2021/12/10 00:06:39;;;;;;;;;;;4.40;97.10;;;;;;5134863;27;19915;-79
2021/12/10 00:09:15;;;;;;;;;;;4.40;97.10;;;;;;5117615;27;20378;-80
2021/12/10 00:11:43;;;;;;;;;;;4.40;97.00;;;;;;5117340;27;20342;-79
2021/12/10 00:14:09;;;;;;;;;;;4.50;97.00;;;;;;5134421;27;20382;-80
2021/12/10 00:16:36;;;;;;;;;;;4.50;96.90;;;;;;5134747;27;19923;-79
2021/12/10 00:19:16;;;;;;;;;;;4.50;96.80;;;;;;5117577;27;19915;-79
2021/12/10 00:21:42;;;;;;;;;;;4.50;96.70;;;;;;5117583;27;19916;-79
2021/12/10 00:24:09;;;;;;;;;;;4.60;96.70;;;;;;5134302;27;19916;-79
2021/12/10 00:26:35;;;;;;;;;;;4.60;96.70;;;;;;5117344;27;19915;-79
2021/12/10 00:29:03;;;;;;;;;;;4.50;96.50;;;;;;5117165;27;19922;-79
2021/12/10 00:34:07;;;;;;;;;;;4.60;96.40;;;;;;5134322;27;19966;-79
2021/12/10 00:36:33;;;;;;;;;;;4.60;96.00;;;;;;5133754;27;19915;-78
2021/12/10 00:39:01;;;;;;;;;;;4.60;95.80;;;;;;5133929;27;19961;-78
2021/12/10 00:41:27;;;;;;;;;;;4.60;95.90;;;;;;5117166;27;19923;-79
2021/12/10 00:43:53;;;;;;;;;;;4.60;96.00;;;;;;5117568;27;20292;-79
2021/12/10 00:46:20;;;;;;;;;;;4.60;95.90;;;;;;5133917;27;20014;-80
2021/12/10 00:48:46;;;;;;;;;;;4.60;95.90;;;;;;5133794;27;19926;-78
2021/12/10 00:51:12;;;;;;;;;;;4.50;95.80;;;;;;5134083;27;19915;-79
2021/12/10 00:53:38;;;;;;;;;;;4.50;95.80;;;;;;5134593;27;20232;-79
2021/12/10 00:56:05;;;;;;;;;;;4.60;95.90;;;;;;5134098;27;20015;-79
2021/12/10 00:58:31;;;;;;;;;;;4.60;95.90;;;;;;5116629;27;19922;-80
2021/12/10 01:00:59;;;;;;;;;;;4.60;95.40;;;;;;5118823;27;20010;-80
2021/12/10 01:03:26;;;;;;;;;;;4.60;95.40;;;;;;5122962;27;20385;-79
2021/12/10 01:05:53;;;;;;;;;;;4.60;95.60;;;;;;5105393;28;19915;-79
2021/12/10 01:08:19;;;;;;;;;;;4.60;95.70;;;;;;5122819;28;19934;-79
2021/12/10 01:10:47;;;;;;;;;;;4.60;95.80;;;;;;5119693;28;20363;-79
2021/12/10 01:13:18;;;;;;;;;;;4.60;95.80;;;;;;5117799;28;19927;-79
2021/12/10 01:16:17;;;;;;;;;;;4.60;95.90;;;;;;5117517;28;19923;-80
2021/12/10 01:23:58;;;;;;;;;;;4.40;96.00;;;;;;5122797;28;19915;-78
2021/12/10 01:29:11;;;;;;;;;;;4.40;96.10;;;;;;5121099;28;19928;-79
2021/12/10 01:31:37;;;;;;;;;;;4.40;96.20;;;;;;5121682;28;19969;-79
2021/12/10 01:34:03;;;;;;;;;;;4.40;96.20;;;;;;5085781;28;19977;-80
2021/12/10 01:36:29;;;;;;;;;;;4.30;96.30;;;;;;5099915;28;20523;-79
2021/12/10 01:38:55;;;;;;;;;;;4.30;96.30;;;;;;5117010;28;19923;-79
2021/12/10 01:41:23;;;;;;;;;;;4.30;96.40;;;;;;5118286;28;19995;-79
2021/12/10 01:43:52;;;;;;;;;;;4.30;96.40;;;;;;5126574;27;21011;-79
2021/12/10 01:46:26;;;;;;;;;;;4.30;96.40;;;;;;5106942;27;19926;-80
2021/12/10 01:48:53;;;;;;;;;;;4.30;96.50;;;;;;5102279;27;19928;-79
2021/12/10 01:51:21;;;;;;;;;;;4.30;96.50;;;;;;5122381;27;20017;-79
2021/12/10 01:53:48;;;;;;;;;;;4.30;96.60;;;;;;5106400;27;19931;-79
2021/12/10 01:56:16;;;;;;;;;;;4.30;96.60;;;;;;5123589;27;19915;-79
2021/12/10 01:58:42;;;;;;;;;;;4.30;96.50;;;;;;5121683;27;19999;-79
2021/12/10 02:01:12;;;;;;;;;;;4.30;96.60;;;;;;5124542;27;20011;-79
2021/12/10 02:03:38;;;;;;;;;;;4.30;96.50;;;;;;5124530;27;19915;-78
2021/12/10 02:06:04;;;;;;;;;;;4.30;96.50;;;;;;5118628;27;19922;-80
2021/12/10 02:08:30;;;;;;;;;;;4.30;96.50;;;;;;5116323;28;19920;-79
2021/12/10 02:10:56;;;;;;;;;;;4.30;96.50;;;;;;5106363;27;20401;-80
2021/12/10 02:13:22;;;;;;;;;;;4.30;96.50;;;;;;5118773;27;20018;-79
2021/12/10 02:15:48;;;;;;;;;;;4.30;96.50;;;;;;5123780;27;20015;-79
2021/12/10 02:18:14;;;;;;;;;;;4.30;96.50;;;;;;5119810;27;19927;-79
2021/12/10 02:20:50;;;;;;;;;;;4.30;96.40;;;;;;5098998;28;19915;-79
2021/12/10 02:23:16;;;;;;;;;;;4.30;96.40;;;;;;5115713;28;20007;-79
2021/12/10 02:25:41;;;;;;;;;;;4.30;96.30;;;;;;5116021;28;19954;-79
2021/12/10 02:28:08;;;;;;;;;;;4.30;96.30;;;;;;5116023;28;20359;-78
2021/12/10 02:30:34;;;;;;;;;;;4.40;96.30;;;;;;5115867;28;20287;-79
2021/12/10 02:33:00;;;;;;;;;;;4.40;96.10;;;;;;5115829;28;19916;-79
2021/12/10 02:35:27;;;;;;;;;;;4.40;96.00;;;;;;5116842;28;19939;-79
2021/12/10 02:37:52;;;;;;;;;;;4.40;95.90;;;;;;5115500;28;19916;-79
2021/12/10 02:40:19;;;;;;;;;;;4.40;95.90;;;;;;5115655;28;19920;-79
2021/12/10 02:42:48;;;;;;;;;;;4.40;95.80;;;;;;5115735;28;19915;-79
2021/12/10 02:45:16;;;;;;;;;;;4.30;95.70;;;;;;5098911;28;20513;-78
2021/12/10 02:47:42;;;;;;;;;;;4.40;95.70;;;;;;5115670;28;20387;-78
2021/12/10 02:50:09;;;;;;;;;;;4.40;95.70;;;;;;5115785;28;19959;-78
2021/12/10 02:52:34;;;;;;;;;;;4.30;95.50;;;;;;5098496;28;19922;-79
2021/12/10 02:55:00;;;;;;;;;;;4.30;95.60;;;;;;5098753;28;19916;-78
2021/12/10 02:57:26;;;;;;;;;;;4.40;95.80;;;;;;5115348;28;20406;-79
2021/12/10 02:59:52;;;;;;;;;;;4.40;95.30;;;;;;5098585;28;19916;-79
2021/12/10 03:02:20;;;;;;;;;;;4.30;95.50;;;;;;5115271;28;19926;-79
2021/12/10 03:04:46;;;;;;;;;;;4.30;95.20;;;;;;5115136;28;20371;-79
2021/12/10 03:07:14;;;;;;;;;;;4.30;95.10;;;;;;5098133;28;19926;-78
2021/12/10 03:09:41;;;;;;;;;;;4.30;95.00;;;;;;5115431;28;19916;-78
2021/12/10 03:12:07;;;;;;;;;;;4.20;94.90;;;;;;5098333;28;19916;-79
2021/12/10 03:14:34;;;;;;;;;;;4.20;94.80;;;;;;5115037;28;19971;-78
2021/12/10 03:17:03;;;;;;;;;;;4.20;94.40;;;;;;5114936;28;19916;-79
2021/12/10 03:19:28;;;;;;;;;;;4.20;94.90;;;;;;5115019;28;19915;-78
2021/12/10 03:21:54;;;;;;;;;;;4.20;94.90;;;;;;5115239;28;19922;-79
2021/12/10 03:24:22;;;;;;;;;;;4.20;94.60;;;;;;5115278;28;19915;-79
2021/12/10 03:26:51;;;;;;;;;;;4.20;94.50;;;;;;5114735;28;19916;-78
2021/12/10 03:29:21;;;;;;;;;;;4.10;94.40;;;;;;5097827;28;20367;-79
2021/12/10 03:31:47;;;;;;;;;;;4.10;94.30;;;;;;5114623;28;19927;-80
2021/12/10 03:34:13;;;;;;;;;;;4.10;94.20;;;;;;5114745;28;19915;-79
2021/12/10 03:36:45;;;;;;;;;;;4.00;93.70;;;;;;5097640;28;19965;-79
2021/12/10 03:39:12;;;;;;;;;;;4.00;93.90;;;;;;5114667;28;19943;-79
2021/12/10 03:41:38;;;;;;;;;;;4.00;94.00;;;;;;5097875;28;19916;-78
2021/12/10 03:44:03;;;;;;;;;;;3.90;94.20;;;;;;5114477;28;20402;-79
2021/12/10 03:46:29;;;;;;;;;;;3.90;94.30;;;;;;5097021;28;19916;-79
2021/12/10 03:48:55;;;;;;;;;;;3.90;94.40;;;;;;5114321;28;19920;-79
2021/12/10 03:51:22;;;;;;;;;;;3.80;94.40;;;;;;5114415;28;19967;-78
2021/12/10 03:53:49;;;;;;;;;;;3.80;94.40;;;;;;5114997;28;19916;-78
2021/12/10 03:56:16;;;;;;;;;;;3.80;94.60;;;;;;5114279;28;19916;-79
2021/12/10 03:58:42;;;;;;;;;;;3.70;94.40;;;;;;5097213;28;19923;-79
2021/12/10 04:01:09;;;;;;;;;;;3.70;94.70;;;;;;5114105;28;19916;-78
2021/12/10 04:03:35;;;;;;;;;;;3.70;94.70;;;;;;5114438;28;19915;-78
2021/12/10 04:06:01;;;;;;;;;;;3.60;94.40;;;;;;5113807;28;20309;-78
2021/12/10 04:08:27;;;;;;;;;;;3.60;94.40;;;;;;5113999;28;20006;-78
2021/12/10 04:10:53;;;;;;;;;;;3.60;94.30;;;;;;5080941;28;20002;-79
2021/12/10 04:13:20;;;;;;;;;;;3.50;94.30;;;;;;5114015;28;19916;-78
2021/12/10 04:15:46;;;;;;;;;;;3.50;94.40;;;;;;5113864;28;19955;-78
2021/12/10 04:18:12;;;;;;;;;;;3.40;94.40;;;;;;5114176;28;19916;-78
2021/12/10 04:20:38;;;;;;;;;;;3.40;94.40;;;;;;5096905;28;19916;-79
2021/12/10 04:23:05;;;;;;;;;;;3.40;94.50;;;;;;5113764;28;20002;-79
2021/12/10 04:25:31;;;;;;;;;;;3.40;94.60;;;;;;5113665;28;19916;-78
2021/12/10 04:27:59;;;;;;;;;;;3.20;94.40;;;;;;5096619;28;19972;-78
2021/12/10 04:30:26;;;;;;;;;;;3.20;94.30;;;;;;5113617;28;19916;-79
2021/12/10 04:32:52;;;;;;;;;;;3.20;94.50;;;;;;5096867;28;19927;-78
2021/12/10 04:35:18;;;;;;;;;;;3.10;94.60;;;;;;5113508;28;20390;-78
2021/12/10 04:37:45;;;;;;;;;;;3.10;94.50;;;;;;5113747;28;19915;-78
2021/12/10 04:40:11;;;;;;;;;;;3.00;94.60;;;;;;5113685;28;19916;-78
2021/12/10 04:42:37;;;;;;;;;;;2.90;94.70;;;;;;5096774;28;20384;-78
2021/12/10 04:45:03;;;;;;;;;;;2.80;94.70;;;;;;5113533;28;19980;-78
2021/12/10 04:47:29;;;;;;;;;;;2.80;94.80;;;;;;5113503;28;19943;-78
2021/12/10 04:49:55;;;;;;;;;;;2.70;94.90;;;;;;5113432;28;19915;-78
2021/12/10 04:52:21;;;;;;;;;;;2.70;94.90;;;;;;5096455;28;20007;-78
2021/12/10 04:54:47;;;;;;;;;;;2.60;94.90;;;;;;5113340;28;19962;-78
2021/12/10 04:57:12;;;;;;;;;;;2.60;94.90;;;;;;5113221;28;20020;-78
2021/12/10 04:59:39;;;;;;;;;;;2.60;95.00;;;;;;5096482;28;19922;-78
2021/12/10 05:02:06;;;;;;;;;;;2.50;95.00;;;;;;5113539;28;20320;-78
2021/12/10 05:04:32;;;;;;;;;;;2.50;95.20;;;;;;5096192;28;19916;-78
2021/12/10 05:06:58;;;;;;;;;;;2.50;95.30;;;;;;5095980;28;19984;-78
2021/12/10 05:09:24;;;;;;;;;;;2.50;95.30;;;;;;5096149;28;19915;-78
2021/12/10 05:11:50;;;;;;;;;;;2.50;95.40;;;;;;5113196;28;19923;-78
2021/12/10 05:14:16;;;;;;;;;;;2.40;95.30;;;;;;5113442;28;19916;-78
2021/12/10 05:16:44;;;;;;;;;;;2.40;95.30;;;;;;5096000;28;20382;-78
2021/12/10 05:19:11;;;;;;;;;;;2.40;95.30;;;;;;5081506;28;20405;-78
2021/12/10 05:21:38;;;;;;;;;;;2.40;95.40;;;;;;5117652;28;19920;-78
2021/12/10 05:24:04;;;;;;;;;;;2.50;95.40;;;;;;5100337;28;19932;-78
2021/12/10 05:26:30;;;;;;;;;;;2.50;95.40;;;;;;5117288;28;19923;-78
2021/12/10 05:28:56;;;;;;;;;;;2.50;95.40;;;;;;5083209;28;19920;-78
2021/12/10 05:31:22;;;;;;;;;;;2.40;95.40;;;;;;5117037;28;20301;-78
2021/12/10 05:33:48;;;;;;;;;;;2.40;95.50;;;;;;5100305;28;20367;-78
2021/12/10 05:36:13;;;;;;;;;;;2.40;95.40;;;;;;5116866;28;19916;-79
2021/12/10 05:38:39;;;;;;;;;;;2.40;95.40;;;;;;5117309;28;19915;-78
2021/12/10 05:41:06;;;;;;;;;;;2.40;95.50;;;;;;5116958;28;19916;-78
2021/12/10 05:43:33;;;;;;;;;;;2.40;95.40;;;;;;5116571;28;19916;-78
2021/12/10 05:45:58;;;;;;;;;;;2.40;95.50;;;;;;5099606;28;19923;-78
2021/12/10 05:48:24;;;;;;;;;;;2.40;95.50;;;;;;5116809;28;19920;-78
2021/12/10 05:50:49;;;;;;;;;;;2.40;95.60;;;;;;5117110;28;19916;-78
2021/12/10 05:53:15;;;;;;;;;;;2.40;95.60;;;;;;5117104;28;19964;-78
2021/12/10 05:55:42;;;;;;;;;;;2.40;95.60;;;;;;5116624;28;19922;-78
2021/12/10 05:58:07;;;;;;;;;;;2.40;95.60;;;;;;5099589;28;20019;-79
2021/12/10 06:00:36;;;;;;;;;;;2.40;95.70;;;;;;5099659;28;19955;-78
2021/12/10 06:03:01;;;;;;;;;;;2.40;95.70;;;;;;5116890;28;19915;-78
2021/12/10 06:05:29;;;;;;;;;;;2.40;95.80;;;;;;5099726;28;20468;-78
2021/12/10 06:07:54;;;;;;;;;;;2.40;95.80;;;;;;5116446;28;19919;-79
2021/12/10 06:10:21;;;;;;;;;;;2.40;95.80;;;;;;5082954;28;20259;-78
2021/12/10 06:12:46;;;;;;;;;;;2.40;95.70;;;;;;5116352;28;19919;-78
2021/12/10 06:15:14;;;;;;;;;;;2.40;95.70;;;;;;5116283;28;19922;-78
2021/12/10 06:17:40;;;;;;;;;;;2.40;95.80;;;;;;5116299;28;19916;-78
2021/12/10 06:20:07;;;;;;;;;;;2.40;95.80;;;;;;5116504;28;19985;-78
2021/12/10 06:22:32;;;;;;;;;;;2.40;95.90;;;;;;5116377;28;19915;-78
2021/12/10 06:24:58;;;;;;;;;;;2.50;95.90;;;;;;5082090;28;19960;-78
2021/12/10 06:27:24;;;;;;;;;;;2.50;95.90;;;;;;5098996;28;19920;-78
2021/12/10 06:29:49;;;;;;;;;;;2.50;96.00;;;;;;5098827;28;19916;-78
2021/12/10 06:32:15;;;;;;;;;;;2.50;96.00;;;;;;5115881;28;20332;-77
2021/12/10 06:34:41;;;;;;;;;;;2.60;96.00;;;;;;5115986;28;20363;-78
2021/12/10 06:37:06;;;;;;;;;;;2.60;96.00;;;;;;5116432;28;20002;-78
2021/12/10 06:39:32;;;;;;;;;;;2.60;96.00;;;;;;5115864;28;19923;-77
2021/12/10 06:41:58;;;;;;;;;;;2.70;96.00;;;;;;5115821;28;19980;-78
2021/12/10 06:44:24;;;;;;;;;;;2.70;96.00;;;;;;5115779;28;19923;-78
2021/12/10 06:46:50;;;;;;;;;;;2.70;96.00;;;;;;5115620;28;20283;-78
2021/12/10 06:49:16;;;;;;;;;;;2.70;96.00;;;;;;5115694;28;19923;-78
2021/12/10 06:51:42;;;;;;;;;;;2.80;95.90;;;;;;5116486;28;19919;-78
2021/12/10 06:54:07;;;;;;;;;;;2.80;95.90;;;;;;5115740;28;19915;-78
2021/12/10 06:56:35;;;;;;;;;;;2.80;95.80;;;;;;5098262;28;19919;-79
2021/12/10 06:59:01;;;;;;;;;;;2.80;95.70;;;;;;5098491;28;19919;-78
2021/12/10 07:01:28;;;;;;;;;;;2.80;95.60;;;;;;5115454;28;19919;-79
2021/12/10 07:03:56;;;;;;;;;;;2.80;95.60;;;;;;5115365;28;19915;-79
2021/12/10 07:06:22;;;;;;;;;;;2.80;95.40;;;;;;5115624;28;19922;-79
2021/12/10 07:08:48;;;;;;;;;;;2.80;95.40;;;;;;5115243;28;19919;-79
2021/12/10 07:11:14;;;;;;;;;;;2.80;95.50;;;;;;5115571;28;19960;-79
2021/12/10 07:13:41;;;;;;;;;;;2.80;95.50;;;;;;5096967;28;19916;-78
2021/12/10 07:16:07;;;;;;;;;;;2.80;95.30;;;;;;5078153;28;20290;-77
2021/12/10 07:18:33;;;;;;;;;;;2.80;95.40;;;;;;5097665;28;19916;-79
2021/12/10 07:20:58;;;;;;;;;;;2.70;95.40;;;;;;5115313;27;19915;-80
2021/12/10 07:23:24;;;;;;;;;;;2.70;95.30;;;;;;5119684;27;19915;-79
2021/12/10 07:25:50;;;;;;;;;;;2.70;94.90;;;;;;5099150;27;20365;-78
2021/12/10 07:28:16;;;;;;;;;;;2.60;95.10;;;;;;5119819;27;19966;-79
2021/12/10 07:30:42;;;;;;;;;;;2.60;95.10;;;;;;5115225;27;19982;-79
2021/12/10 07:33:08;;;;;;;;;;;2.60;95.00;;;;;;5116536;27;19932;-78
2021/12/10 07:35:34;;;;;;;;;;;2.60;95.10;;;;;;5106109;27;20383;-78
2021/12/10 07:38:00;;;;;;;;;;;2.50;95.10;;;;;;5100858;27;19961;-78
2021/12/10 07:40:29;;;;;;;;;;;2.50;95.10;;;;;;5089608;27;20005;-78
2021/12/10 07:42:55;;;;;;;;;;;2.50;95.10;;;;;;5113915;27;19923;-78
2021/12/10 07:45:22;;;;;;;;;;;2.50;95.50;;;;;;5106322;27;19915;-78
2021/12/10 07:47:51;;;;;;;;;;;2.50;95.40;;;;;;5115897;27;20294;-77
2021/12/10 07:50:18;;;;;;;;;;;2.50;95.40;;;;;;5098033;27;19923;-78
2021/12/10 07:52:45;;;;;;;;;;;2.50;95.50;;;;;;5103681;27;19994;-77
2021/12/10 07:55:12;;;;;;;;;;;2.50;95.50;;;;;;5118883;27;19927;-78
2021/12/10 07:57:39;;;;;;;;;;;2.60;95.50;;;;;;5117233;27;20256;-78
2021/12/10 08:00:06;;;;;;;;;;;2.50;95.40;;;;;;5115429;27;19978;-78
2021/12/10 08:02:32;;;;;;;;;;;2.60;95.50;;;;;;5112944;27;19916;-78
2021/12/10 08:04:57;;;;;;;;;;;2.50;95.20;;;;;;5101664;27;20060;-78
2021/12/10 08:07:25;;;;;;;;;;;2.40;95.20;;;;;;5116571;27;19989;-79
2021/12/10 08:09:51;;;;;;;;;;;2.50;95.40;;;;;;5116752;27;19915;-78
2021/12/10 08:12:16;;;;;;;;;;;2.40;95.20;;;;;;5133916;27;20059;-78
2021/12/10 08:14:42;;;;;;;;;;;2.30;95.20;;;;;;5099826;27;19915;-78
2021/12/10 08:17:08;;;;;;;;;;;2.40;94.90;;;;;;5117005;27;19920;-78
2021/12/10 08:19:33;;;;;;;;;;;2.30;95.10;;;;;;5133957;27;20363;-78
2021/12/10 08:21:59;;;;;;;;;;;2.30;95.00;;;;;;5134067;27;20209;-78
2021/12/10 08:24:25;;;;;;;;;;;2.30;95.10;;;;;;5099594;27;19922;-79
2021/12/10 08:26:50;;;;;;;;;;;2.40;95.00;;;;;;5133804;27;19915;-78
2021/12/10 08:29:20;;;;;;;;;;;2.30;95.00;;;;;;5133820;27;19968;-78
2021/12/10 08:31:47;;;;;;;;;;;2.40;94.90;;;;;;5116155;27;19920;-78
2021/12/10 08:34:12;;;;;;;;;;;2.30;94.90;;;;;;5133644;27;19916;-78
2021/12/10 08:36:38;;;;;;;;;;;2.40;94.70;;;;;;5133887;27;19915;-78
2021/12/10 08:39:05;;;;;;;;;;;2.40;94.80;;;;;;5133398;27;19915;-78
2021/12/10 08:41:33;;;;;;;;;;;2.40;94.80;;;;;;5133586;27;19915;-78
2021/12/10 08:43:58;;;;;;;;;;;2.40;94.80;;;;;;5116427;27;20358;-78
2021/12/10 08:46:25;;;;;;;;;;;2.40;94.60;;;;;;5133530;27;19915;-78
2021/12/10 08:48:51;;;;;;;;;;;2.50;94.40;;;;;;5133270;27;20366;-78
2021/12/10 08:51:19;;;;;;;;;;;2.50;94.40;;;;;;5133472;27;19926;-78
2021/12/10 08:53:45;;;;;;;;;;;2.50;94.40;;;;;;5133001;27;19915;-78
2021/12/10 08:56:11;;;;;;;;;;;2.50;94.40;;;;;;5116203;27;19922;-78
2021/12/10 08:58:37;;;;;;;;;;;2.50;94.30;;;;;;5133321;27;19919;-78
2021/12/10 09:01:22;;;;;;;;;;;2.60;94.40;;;;;;5115836;28;19915;-78
2021/12/10 09:03:50;;;;;;;;;;;2.60;94.40;;;;;;5133202;27;19915;-78
2021/12/10 09:06:17;;;;;;;;;;;2.60;94.60;;;;;;5133610;27;20390;-78
2021/12/10 09:08:43;;;;;;;;;;;2.60;94.10;;;;;;5133210;27;19919;-78
2021/12/10 09:11:09;;;;;;;;;;;2.60;94.60;;;;;;5116268;28;20266;-78
2021/12/10 09:13:35;;;;;;;;;;;2.70;94.80;;;;;;5133222;27;19916;-78
2021/12/10 09:16:02;;;;;;;;;;;2.70;94.90;;;;;;5133179;28;19921;-78
2021/12/10 09:18:28;;;;;;;;;;;2.70;94.80;;;;;;5116010;28;19922;-78
2021/12/10 09:20:56;;;;;;;;;;;2.60;94.80;;;;;;5132832;28;19915;-78
2021/12/10 09:23:24;;;;;;;;;;;2.60;94.50;;;;;;5132972;28;19966;-78
2021/12/10 09:25:51;;;;;;;;;;;2.70;94.40;;;;;;5133158;28;20034;-78
2021/12/10 09:28:17;;;;;;;;;;;2.70;94.50;;;;;;5115408;28;20018;-78
2021/12/10 09:30:43;;;;;;;;;;;2.70;94.30;;;;;;5098510;28;19994;-78
2021/12/10 09:33:09;;;;;;;;;;;2.70;94.00;;;;;;5133253;28;19922;-78
2021/12/10 09:35:35;;;;;;;;;;;2.80;93.80;;;;;;5132704;28;20290;-78
2021/12/10 09:38:01;;;;;;;;;;;2.80;93.70;;;;;;5098502;28;20373;-78
2021/12/10 09:40:33;;;;;;;;;;;2.80;93.30;;;;;;5116132;28;19919;-77
2021/12/10 09:42:59;;;;;;;;;;;2.90;93.80;;;;;;5116026;28;20267;-78
2021/12/10 09:45:25;;;;;;;;;;;2.90;93.70;;;;;;5132970;28;19915;-78
2021/12/10 09:47:51;;;;;;;;;;;3.00;93.30;;;;;;5132878;28;19926;-78
2021/12/10 09:50:19;;;;;;;;;;;3.00;93.20;;;;;;5132888;28;19949;-79
2021/12/10 09:52:45;;;;;;;;;;;3.10;93.20;;;;;;5132743;28;19922;-79
2021/12/10 09:55:11;;;;;;;;;;;3.10;93.90;;;;;;5133191;28;20279;-79
2021/12/10 09:57:37;;;;;;;;;;;3.10;93.30;;;;;;5132588;28;19920;-79
2021/12/10 10:00:32;;;;;;;;;;;3.10;93.40;;;;;;5132929;28;19921;-79
2021/12/10 10:02:59;;;;;;;;;;;3.20;93.10;;;;;;5111123;28;19922;-79
2021/12/10 10:05:27;;;;;;;;;;;3.20;93.20;;;;;;5118383;27;19978;-79
2021/12/10 10:07:54;;;;;;;;;;;3.30;92.40;;;;;;5136493;27;20006;-79
2021/12/10 10:10:20;;;;;;;;;;;3.30;91.70;;;;;;5119360;27;19915;-77
2021/12/10 10:12:47;;;;;;;;;;;3.30;91.80;;;;;;5136248;27;19915;-77
2021/12/10 10:15:17;;;;;;;;;;;3.40;91.90;;;;;;5136410;27;19916;-79
2021/12/10 10:17:43;;;;;;;;;;;3.40;91.40;;;;;;5136715;27;19915;-80
2021/12/10 10:20:11;;;;;;;;;;;3.50;91.70;;;;;;5136357;27;20290;-80
2021/12/10 10:22:37;;;;;;;;;;;3.60;92.30;;;;;;5119036;27;19966;-80
2021/12/10 10:25:07;;;;;;;;;;;3.70;92.60;;;;;;5136281;27;19961;-80
2021/12/10 10:27:34;;;;;;;;;;;3.70;91.80;;;;;;5136371;27;19919;-79
2021/12/10 10:30:06;;;;;;;;;;;3.80;92.50;;;;;;5119172;27;19991;-80
2021/12/10 10:32:33;;;;;;;;;;;3.90;91.90;;;;;;5118537;27;20457;-80
2021/12/10 10:35:01;;;;;;;;;;;4.00;92.20;;;;;;5136098;27;19922;-80
2021/12/10 10:37:31;;;;;;;;;;;4.00;92.40;;;;;;5118801;27;19919;-80
2021/12/10 10:39:57;;;;;;;;;;;4.10;90.10;;;;;;5118827;27;20382;-80
2021/12/10 10:42:25;;;;;;;;;;;4.10;90.40;;;;;;5135889;27;19915;-80
2021/12/10 10:44:51;;;;;;;;;;;4.20;91.30;;;;;;5118818;27;20005;-80
2021/12/10 10:47:20;;;;;;;;;;;4.10;89.00;;;;;;5135580;27;19919;-80
2021/12/10 10:49:47;;;;;;;;;;;4.20;89.50;;;;;;5136013;27;20397;-80
2021/12/10 10:52:12;;;;;;;;;;;4.20;89.90;;;;;;5136016;27;19919;-80
2021/12/10 10:54:38;;;;;;;;;;;4.30;91.70;;;;;;5118508;27;20377;-80
2021/12/10 10:57:13;;;;;;;;;;;4.30;91.30;;;;;;5118588;27;19916;-79
2021/12/10 10:59:39;;;;;;;;;;;4.40;91.10;;;;;;5118777;27;20352;-79
2021/12/10 11:02:07;;;;;;;;;;;4.40;91.50;;;;;;5135530;27;19950;-79
2021/12/10 11:04:39;;;;;;;;;;;4.50;91.70;;;;;;5118413;27;19915;-80
2021/12/10 11:07:13;;;;;;;;;;;4.60;90.50;;;;;;5135277;27;19916;-79
2021/12/10 11:09:46;;;;;;;;;;;4.60;89.80;;;;;;5118244;27;19916;-79
2021/12/10 11:12:14;;;;;;;;;;;4.60;90.40;;;;;;5135276;27;19964;-80
2021/12/10 11:14:44;;;;;;;;;;;4.70;90.00;;;;;;5118539;27;19916;-80
2021/12/10 11:17:30;;;;;;;;;;;4.70;90.00;;;;;;5116666;27;19915;-79
2021/12/10 11:20:19;;;;;;;;;;;4.80;89.60;;;;;;5134456;27;19962;-79
2021/12/10 11:22:49;;;;;;;;;;;4.90;90.80;;;;;;5121668;27;20359;-79
2021/12/10 11:25:23;;;;;;;;;;;5.00;91.70;;;;;;5135028;27;19954;-80
2021/12/10 11:27:49;;;;;;;;;;;5.00;89.80;;;;;;5117528;27;19920;-77
2021/12/10 11:30:26;;;;;;;;;;;5.10;90.20;;;;;;5134869;27;19915;-77
2021/12/10 11:32:55;;;;;;;;;;;5.20;90.70;;;;;;5130463;27;19919;-77
2021/12/10 11:35:23;;;;;;;;;;;5.40;89.00;;;;;;5117717;27;19915;-78
2021/12/10 11:37:51;;;;;;;;;;;5.60;91.50;;;;;;5117194;27;19916;-77
2021/12/10 11:40:27;;;;;;;;;;;5.60;89.60;;;;;;5134661;27;20363;-78
2021/12/10 11:43:01;;;;;;;;;;;5.70;88.80;;;;;;5117569;27;20406;-78
2021/12/10 11:45:43;;;;;;;;;;;5.70;89.60;;;;;;5118169;27;19926;-79
2021/12/10 11:48:12;;;;;;;;;;;5.80;88.40;;;;;;5134717;27;19974;-78
2021/12/10 11:50:41;;;;;;;;;;;5.90;89.50;;;;;;5134849;27;20363;-79
2021/12/10 11:53:08;;;;;;;;;;;5.90;87.30;;;;;;5134434;27;19919;-80
2021/12/10 11:55:35;;;;;;;;;;;6.00;89.10;;;;;;5134786;27;19923;-80
2021/12/10 11:58:03;;;;;;;;;;;6.00;88.60;;;;;;5134772;27;19938;-79
2021/12/10 12:00:31;;;;;;;;;;;6.10;88.40;;;;;;5117508;27;19919;-79
2021/12/10 12:02:59;;;;;;;;;;;6.20;88.30;;;;;;5134057;27;20005;-78
2021/12/10 12:05:27;;;;;;;;;;;6.10;85.30;;;;;;5134252;27;20271;-79
2021/12/10 12:07:58;;;;;;;;;;;6.30;87.40;;;;;;5134264;27;20004;-79
2021/12/10 12:10:41;;;;;;;;;;;6.40;87.50;;;;;;5134618;27;19915;-80
2021/12/10 12:13:33;;;;;;;;;;;6.40;87.00;;;;;;5133680;27;19919;-79
2021/12/10 12:15:58;;;;;;;;;;;6.50;86.40;;;;;;5134428;27;19919;-79
2021/12/10 12:18:26;;;;;;;;;;;6.40;84.10;;;;;;5134327;27;20282;-79
2021/12/10 12:20:52;;;;;;;;;;;6.40;85.90;;;;;;5116934;27;19922;-80
2021/12/10 12:26:10;;;;;;;;;;;6.40;83.80;;;;;;5133885;27;19923;-80
2021/12/10 12:28:41;;;;;;;;;;;6.50;83.80;;;;;;5133226;27;20274;-79
2021/12/10 12:31:12;;;;;;;;;;;6.50;86.10;;;;;;5134077;27;19927;-79
2021/12/10 12:33:57;;;;;;;;;;;6.50;85.60;;;;;;5134423;27;20278;-79
2021/12/10 12:36:28;;;;;;;;;;;6.50;84.20;;;;;;5134652;27;19922;-80
2021/12/10 12:38:54;;;;;;;;;;;6.50;83.20;;;;;;5134467;27;19915;-79
2021/12/10 12:41:20;;;;;;;;;;;6.50;83.50;;;;;;5134229;27;20418;-79
2021/12/10 12:43:47;;;;;;;;;;;6.60;86.00;;;;;;5134295;27;19959;-79
2021/12/10 12:46:13;;;;;;;;;;;6.60;84.80;;;;;;5133986;27;20378;-80
2021/12/10 12:48:53;;;;;;;;;;;6.70;85.40;;;;;;5099795;27;20356;-79
2021/12/10 12:51:20;;;;;;;;;;;6.70;82.20;;;;;;5134005;27;19968;-79
2021/12/10 12:53:47;;;;;;;;;;;6.80;83.90;;;;;;5116790;27;19915;-80
2021/12/10 12:56:14;;;;;;;;;;;7.00;85.10;;;;;;5134225;27;19923;-79
2021/12/10 12:58:46;;;;;;;;;;;7.10;81.90;;;;;;5117118;27;20409;-78
2021/12/10 13:01:17;;;;;;;;;;;7.00;82.80;;;;;;5133662;27;19922;-78
2021/12/10 13:03:43;;;;;;;;;;;7.10;82.40;;;;;;5133771;27;19915;-79
2021/12/10 13:06:23;;;;;;;;;;;7.10;83.60;;;;;;5133578;27;20009;-78
2021/12/10 13:08:58;;;;;;;;;;;7.10;83.40;;;;;;5133574;27;19919;-79
2021/12/10 13:11:31;;;;;;;;;;;7.00;80.30;;;;;;5116591;27;20394;-79
2021/12/10 13:14:03;;;;;;;;;;;7.00;83.80;;;;;;5134014;27;20513;-79
2021/12/10 13:16:44;;;;;;;;;;;6.90;79.50;;;;;;5116621;28;19916;-80
2021/12/10 13:19:15;;;;;;;;;;;6.80;82.50;;;;;;5116420;28;19968;-79
2021/12/10 13:21:41;;;;;;;;;;;6.70;83.30;;;;;;5133310;28;19919;-79
2021/12/10 13:24:07;;;;;;;;;;;6.60;82.40;;;;;;5099364;28;19919;-78
2021/12/10 13:26:32;;;;;;;;;;;6.60;79.90;;;;;;5133471;28;19915;-79
2021/12/10 13:28:58;;;;;;;;;;;6.50;79.40;;;;;;5133436;28;20286;-79
2021/12/10 13:31:24;;;;;;;;;;;6.40;79.60;;;;;;5116185;28;19919;-79
2021/12/10 13:33:50;;;;;;;;;;;6.40;79.80;;;;;;5133801;28;19915;-78
2021/12/10 13:36:16;;;;;;;;;;;6.40;79.70;;;;;;5116124;28;20397;-78
2021/12/10 13:38:46;;;;;;;;;;;6.40;80.40;;;;;;5116327;28;19915;-79
2021/12/10 13:41:12;;;;;;;;;;;6.40;79.90;;;;;;5120447;27;20010;-79
2021/12/10 13:43:39;;;;;;;;;;;6.50;79.70;;;;;;5120648;27;19915;-78
2021/12/10 13:46:11;;;;;;;;;;;6.30;79.40;;;;;;5137382;27;19915;-78
2021/12/10 13:48:39;;;;;;;;;;;6.20;79.90;;;;;;5137526;27;19919;-79
2021/12/10 13:51:07;;;;;;;;;;;6.10;80.00;;;;;;5120382;27;19915;-79
2021/12/10 13:53:32;;;;;;;;;;;6.00;80.10;;;;;;5137488;27;19937;-79
2021/12/10 13:55:59;;;;;;;;;;;5.90;80.90;;;;;;5113614;27;19916;-78
2021/12/10 13:58:31;;;;;;;;;;;5.80;81.00;;;;;;5137588;27;19968;-79
2021/12/10 14:01:00;;;;;;;;;;;5.70;81.80;;;;;;5137214;27;19927;-79
2021/12/10 14:03:36;;;;;;;;;;;5.70;82.10;;;;;;5120114;27;19915;-80
2021/12/10 14:06:01;;;;;;;;;;;5.60;82.70;;;;;;5120086;27;19915;-79
2021/12/10 14:08:27;;;;;;;;;;;5.50;83.20;;;;;;5119791;27;20006;-79
2021/12/10 14:11:01;;;;;;;;;;;5.40;83.10;;;;;;5120033;27;20009;-79
2021/12/10 14:13:28;;;;;;;;;;;5.30;83.40;;;;;;5137220;27;20145;-78
2021/12/10 14:16:04;;;;;;;;;;;5.20;84.10;;;;;;5137125;27;20523;-79
2021/12/10 14:18:34;;;;;;;;;;;5.10;84.50;;;;;;5136813;27;19915;-78
2021/12/10 14:21:09;;;;;;;;;;;5.00;85.30;;;;;;5136508;27;19922;-78
2021/12/10 14:23:38;;;;;;;;;;;4.80;84.50;;;;;;5136844;27;19915;-79
2021/12/10 14:26:14;;;;;;;;;;;4.70;84.80;;;;;;5136638;27;20381;-79
2021/12/10 14:28:41;;;;;;;;;;;4.50;85.10;;;;;;5136652;27;19926;-78
2021/12/10 14:31:13;;;;;;;;;;;4.40;85.30;;;;;;5136642;27;19919;-77
2021/12/10 14:33:45;;;;;;;;;;;4.30;85.80;;;;;;5136748;27;19962;-79
2021/12/10 14:36:14;;;;;;;;;;;4.10;86.00;;;;;;5136494;27;19915;-78
2021/12/10 14:38:42;;;;;;;;;;;4.10;86.20;;;;;;5119279;27;19922;-79
2021/12/10 14:41:10;;;;;;;;;;;4.00;86.20;;;;;;5119304;27;19979;-78
2021/12/10 14:43:49;;;;;;;;;;;3.80;86.40;;;;;;5136248;27;20372;-79
2021/12/10 14:46:20;;;;;;;;;;;3.70;86.50;;;;;;5136770;27;19922;-78
2021/12/10 14:49:05;;;;;;;;;;;3.60;86.70;;;;;;5119647;27;20388;-78